Terminal Aerodrome Forecast
Issued by NWS Salt Lake City, UT

Home | Current Version | Previous Version | Text Only | Print | Product List | Glossary On
Versions: 1 2 3 4 5 6 7 8 9 10 11 12 13 14 15 16 17 18 19 20 21 22 23 24 25 26 27 28 29 30
000
FTUS45 KSLC 220853 AAA
TAFSLC
TAF AMD
KSLC 220853Z 2209/2312 14008KT P6SM SKC
     FM222000 33008KT P6SM FEW080
     FM230300 14009KT P6SM SCT080 BKN110
     FM230900 32008KT P6SM VCSH SCT050 BKN080=

USA.gov is the U.S. government's official web portal to all federal, state and local government web resources and services.